DAL9910 KBWI-KSAV
Flight info
| Callsign | DAL9910 |
|---|---|
| Flight time | 1h 28m |
| Altitude | 34000 |
| Route | KBWI/15R CONLE5 SCOOB DCT HURTS Q87 JROSS Q409 KONEY DCT KSAV/R19 |
| Aircraft | B738/M-SDE2E3FGHIRWXY/LB1 |
Departure
| Time | 2026-04-25 16:27 |
|---|---|
| Airport | Baltimore/Washington International Thurgood Marshall Airport (KBWI) |
Arrival
| Time | 2026-04-25 17:55 |
|---|---|
| Airport | Savannah Hilton Head International Airport (KSAV) |
| Time | Latitude | Longitude | Altitude | Speed | Heading |
|---|---|---|---|---|---|
| 2026-04-25 14:51 | 39.18072 | -76.66376 | 147 ft | 0 kts | 324° |
| 2026-04-25 16:11 | 39.18071 | -76.66376 | 147 ft | 0 kts | 324° |
| 2026-04-25 16:12 | 39.18068 | -76.66373 | 147 ft | 2 kts | 323° |
| 2026-04-25 16:12 | 39.18057 | -76.66362 | 147 ft | 2 kts | 322° |
| 2026-04-25 16:12 | 39.18044 | -76.66350 | 146 ft | 2 kts | 322° |
| 2026-04-25 16:12 | 39.18037 | -76.66342 | 146 ft | 2 kts | 322° |
| 2026-04-25 16:13 | 39.18021 | -76.66326 | 146 ft | 2 kts | 322° |
| 2026-04-25 16:13 | 39.18009 | -76.66315 | 145 ft | 1 kts | 322° |
| 2026-04-25 16:13 | 39.17997 | -76.66304 | 145 ft | 2 kts | 327° |
| 2026-04-25 16:13 | 39.17984 | -76.66293 | 144 ft | 2 kts | 324° |
| 2026-04-25 16:14 | 39.17977 | -76.66286 | 144 ft | 2 kts | 323° |
| 2026-04-25 16:14 | 39.17966 | -76.66271 | 144 ft | 2 kts | 300° |
| 2026-04-25 16:14 | 39.17960 | -76.66254 | 143 ft | 2 kts | 284° |
| 2026-04-25 16:14 | 39.17958 | -76.66234 | 142 ft | 2 kts | 268° |
| 2026-04-25 16:15 | 39.17960 | -76.66215 | 141 ft | 2 kts | 250° |
| 2026-04-25 16:15 | 39.17967 | -76.66197 | 140 ft | 2 kts | 233° |
| 2026-04-25 16:15 | 39.17977 | -76.66183 | 140 ft | 1 kts | 217° |
| 2026-04-25 16:15 | 39.17983 | -76.66178 | 140 ft | 1 kts | 211° |
| 2026-04-25 16:16 | 39.17985 | -76.66177 | 140 ft | 0 kts | 213° |
| 2026-04-25 16:19 | 39.17984 | -76.66177 | 140 ft | 0 kts | 213° |
| 2026-04-25 16:19 | 39.17966 | -76.66192 | 140 ft | 5 kts | 213° |
| 2026-04-25 16:19 | 39.17931 | -76.66222 | 141 ft | 6 kts | 213° |
| 2026-04-25 16:20 | 39.17845 | -76.66294 | 144 ft | 8 kts | 213° |
| 2026-04-25 16:20 | 39.17794 | -76.66337 | 146 ft | 8 kts | 213° |
| 2026-04-25 16:20 | 39.17660 | -76.66448 | 146 ft | 14 kts | 212° |
| 2026-04-25 16:21 | 39.17566 | -76.66527 | 146 ft | 17 kts | 213° |
| 2026-04-25 16:21 | 39.17519 | -76.66659 | 146 ft | 17 kts | 277° |
| 2026-04-25 16:21 | 39.17525 | -76.66813 | 146 ft | 16 kts | 245° |
| 2026-04-25 16:21 | 39.17469 | -76.66923 | 146 ft | 16 kts | 287° |
| 2026-04-25 16:22 | 39.17508 | -76.67059 | 145 ft | 16 kts | 306° |
| 2026-04-25 16:22 | 39.17598 | -76.67158 | 143 ft | 17 kts | 324° |
| 2026-04-25 16:22 | 39.17702 | -76.67252 | 141 ft | 18 kts | 324° |
| 2026-04-25 16:22 | 39.17811 | -76.67351 | 139 ft | 18 kts | 316° |
| 2026-04-25 16:23 | 39.17918 | -76.67454 | 137 ft | 19 kts | 326° |
| 2026-04-25 16:23 | 39.18034 | -76.67561 | 136 ft | 20 kts | 323° |
| 2026-04-25 16:23 | 39.18151 | -76.67668 | 136 ft | 20 kts | 324° |
| 2026-04-25 16:23 | 39.18265 | -76.67770 | 136 ft | 19 kts | 325° |
| 2026-04-25 16:24 | 39.18373 | -76.67872 | 136 ft | 19 kts | 320° |
| 2026-04-25 16:24 | 39.18488 | -76.67981 | 133 ft | 21 kts | 324° |
| 2026-04-25 16:24 | 39.18534 | -76.68023 | 132 ft | 2 kts | 325° |
| 2026-04-25 16:24 | 39.18557 | -76.68044 | 131 ft | 5 kts | 320° |
| 2026-04-25 16:25 | 39.18574 | -76.68089 | 129 ft | 0 kts | 274° |
| 2026-04-25 16:25 | 39.18574 | -76.68094 | 128 ft | 4 kts | 271° |
| 2026-04-25 16:26 | 39.18533 | -76.68187 | 124 ft | 19 kts | 219° |
| 2026-04-25 16:26 | 39.18406 | -76.68092 | 129 ft | 26 kts | 131° |
| 2026-04-25 16:26 | 39.18197 | -76.67876 | 132 ft | 70 kts | 141° |
| 2026-04-25 16:26 | 39.17694 | -76.67203 | 145 ft | 136 kts | 128° |
| 2026-04-25 16:27 | 39.16868 | -76.66442 | 573 ft | 162 kts | 151° |
| 2026-04-25 16:27 | 39.15898 | -76.65751 | 1458 ft | 156 kts | 144° |
| 2026-04-25 16:27 | 39.14998 | -76.64932 | 2249 ft | 166 kts | 141° |
| 2026-04-25 16:27 | 39.14032 | -76.64025 | 2982 ft | 179 kts | 143° |
| 2026-04-25 16:28 | 39.12979 | -76.63055 | 3682 ft | 196 kts | 144° |
| 2026-04-25 16:28 | 39.11847 | -76.62014 | 4529 ft | 205 kts | 145° |
| 2026-04-25 16:28 | 39.10692 | -76.60862 | 4938 ft | 212 kts | 139° |
| 2026-04-25 16:28 | 39.09637 | -76.59486 | 4989 ft | 212 kts | 134° |
| 2026-04-25 16:29 | 39.08648 | -76.58086 | 4975 ft | 209 kts | 134° |
| 2026-04-25 16:29 | 39.07646 | -76.56719 | 4977 ft | 209 kts | 135° |
| 2026-04-25 16:29 | 39.06623 | -76.55353 | 4976 ft | 210 kts | 135° |
| 2026-04-25 16:29 | 39.05604 | -76.53998 | 4974 ft | 209 kts | 135° |
| 2026-04-25 16:30 | 39.04575 | -76.52628 | 4976 ft | 210 kts | 135° |
| 2026-04-25 16:30 | 39.03551 | -76.51262 | 4974 ft | 210 kts | 135° |
| 2026-04-25 16:30 | 39.02464 | -76.49817 | 5167 ft | 238 kts | 135° |
| 2026-04-25 16:30 | 39.01277 | -76.48245 | 5813 ft | 252 kts | 137° |
| 2026-04-25 16:31 | 38.99878 | -76.46796 | 6579 ft | 259 kts | 154° |
| 2026-04-25 16:31 | 38.98175 | -76.46192 | 7527 ft | 255 kts | 181° |
| 2026-04-25 16:31 | 38.96424 | -76.46467 | 8488 ft | 253 kts | 196° |
| 2026-04-25 16:31 | 38.94720 | -76.47066 | 9385 ft | 256 kts | 199° |
| 2026-04-25 16:32 | 38.93017 | -76.47709 | 10273 ft | 259 kts | 199° |
| 2026-04-25 16:32 | 38.91247 | -76.48374 | 11013 ft | 269 kts | 199° |
| 2026-04-25 16:32 | 38.89377 | -76.49065 | 11582 ft | 286 kts | 199° |
| 2026-04-25 16:32 | 38.87402 | -76.49787 | 12156 ft | 302 kts | 199° |
| 2026-04-25 16:33 | 38.85314 | -76.50554 | 12724 ft | 319 kts | 199° |
| 2026-04-25 16:33 | 38.83118 | -76.51441 | 13241 ft | 336 kts | 202° |
| 2026-04-25 16:33 | 38.80885 | -76.52511 | 13771 ft | 352 kts | 204° |
| 2026-04-25 16:33 | 38.78540 | -76.53705 | 13943 ft | 365 kts | 204° |
| 2026-04-25 16:34 | 38.76197 | -76.54900 | 14073 ft | 374 kts | 204° |
| 2026-04-25 16:34 | 38.73749 | -76.56133 | 14485 ft | 373 kts | 204° |
| 2026-04-25 16:34 | 38.71318 | -76.57343 | 14896 ft | 376 kts | 204° |
| 2026-04-25 16:34 | 38.68854 | -76.58559 | 15303 ft | 379 kts | 204° |
| 2026-04-25 16:35 | 38.66340 | -76.59762 | 15705 ft | 382 kts | 202° |
| 2026-04-25 16:35 | 38.63802 | -76.60935 | 16112 ft | 385 kts | 202° |
| 2026-04-25 16:35 | 38.61278 | -76.62084 | 16526 ft | 388 kts | 202° |
| 2026-04-25 16:35 | 38.58677 | -76.63268 | 16923 ft | 391 kts | 202° |
| 2026-04-25 16:36 | 38.56101 | -76.64442 | 17323 ft | 394 kts | 202° |
| 2026-04-25 16:36 | 38.55223 | -76.64842 | 17452 ft | 395 kts | 202° |
| 2026-04-25 16:36 | 38.50866 | -76.66836 | 18133 ft | 399 kts | 202° |
| 2026-04-25 16:36 | 38.48204 | -76.68059 | 18560 ft | 401 kts | 202° |
| 2026-04-25 16:37 | 38.45556 | -76.69263 | 18967 ft | 404 kts | 201° |
| 2026-04-25 16:37 | 38.42820 | -76.70313 | 19377 ft | 408 kts | 196° |
| 2026-04-25 16:37 | 38.39989 | -76.70878 | 19795 ft | 414 kts | 186° |
| 2026-04-25 16:37 | 38.37057 | -76.70859 | 20218 ft | 419 kts | 179° |
| 2026-04-25 16:38 | 38.34153 | -76.70534 | 20637 ft | 422 kts | 176° |
| 2026-04-25 16:38 | 38.31198 | -76.70068 | 21041 ft | 425 kts | 174° |
| 2026-04-25 16:38 | 38.28208 | -76.69544 | 21466 ft | 428 kts | 174° |
| 2026-04-25 16:38 | 38.25257 | -76.69016 | 21882 ft | 430 kts | 174° |
| 2026-04-25 16:39 | 38.22245 | -76.68485 | 22310 ft | 433 kts | 174° |
| 2026-04-25 16:39 | 38.19237 | -76.67967 | 22717 ft | 435 kts | 174° |
| 2026-04-25 16:39 | 38.16221 | -76.67459 | 23136 ft | 438 kts | 175° |
| 2026-04-25 16:39 | 38.13178 | -76.66956 | 23559 ft | 441 kts | 175° |
| 2026-04-25 16:40 | 38.10074 | -76.66449 | 23995 ft | 444 kts | 175° |
| 2026-04-25 16:40 | 38.06987 | -76.66039 | 24423 ft | 446 kts | 178° |
| 2026-04-25 16:40 | 38.03854 | -76.65770 | 24856 ft | 448 kts | 179° |
| 2026-04-25 16:40 | 38.00711 | -76.65577 | 25296 ft | 452 kts | 180° |
| 2026-04-25 16:41 | 37.97495 | -76.65407 | 25736 ft | 455 kts | 180° |
| 2026-04-25 16:41 | 37.95364 | -76.65296 | 26029 ft | 457 kts | 180° |
| 2026-04-25 16:41 | 37.87835 | -76.64880 | 27056 ft | 464 kts | 180° |
| 2026-04-25 16:42 | 37.84573 | -76.64684 | 27496 ft | 468 kts | 180° |
| 2026-04-25 16:42 | 37.81245 | -76.64478 | 27942 ft | 472 kts | 180° |
| 2026-04-25 16:42 | 37.77945 | -76.64269 | 28382 ft | 472 kts | 180° |
| 2026-04-25 16:42 | 37.74644 | -76.64054 | 28822 ft | 470 kts | 180° |
| 2026-04-25 16:43 | 37.71378 | -76.63839 | 29260 ft | 471 kts | 180° |
| 2026-04-25 16:43 | 37.68073 | -76.63619 | 29704 ft | 470 kts | 180° |
| 2026-04-25 16:43 | 37.64760 | -76.63468 | 30157 ft | 469 kts | 183° |
| 2026-04-25 16:43 | 37.61498 | -76.63574 | 30602 ft | 466 kts | 188° |
| 2026-04-25 16:44 | 37.58371 | -76.64066 | 31043 ft | 461 kts | 194° |
| 2026-04-25 16:44 | 37.55242 | -76.64984 | 31492 ft | 458 kts | 200° |
| 2026-04-25 16:44 | 37.52225 | -76.66209 | 31943 ft | 456 kts | 204° |
| 2026-04-25 16:44 | 37.49237 | -76.67612 | 32398 ft | 452 kts | 206° |
| 2026-04-25 16:45 | 37.46263 | -76.69101 | 32856 ft | 452 kts | 206° |
| 2026-04-25 16:45 | 37.43339 | -76.70596 | 33312 ft | 451 kts | 207° |
| 2026-04-25 16:45 | 37.40393 | -76.72102 | 33733 ft | 450 kts | 207° |
| 2026-04-25 16:45 | 37.37418 | -76.73616 | 33871 ft | 451 kts | 207° |
| 2026-04-25 16:46 | 37.31585 | -76.76539 | 33885 ft | 445 kts | 206° |
| 2026-04-25 16:46 | 37.26703 | -76.78955 | 33882 ft | 446 kts | 206° |
| 2026-04-25 16:47 | 37.19907 | -76.82295 | 33871 ft | 446 kts | 206° |
| 2026-04-25 16:47 | 37.14041 | -76.85162 | 33871 ft | 446 kts | 206° |
| 2026-04-25 16:48 | 37.08181 | -76.88017 | 33871 ft | 447 kts | 206° |
| 2026-04-25 16:48 | 37.02363 | -76.90844 | 33859 ft | 448 kts | 206° |
| 2026-04-25 16:49 | 36.96567 | -76.93656 | 33861 ft | 447 kts | 206° |
| 2026-04-25 16:49 | 36.90738 | -76.96479 | 33859 ft | 446 kts | 206° |
| 2026-04-25 16:50 | 36.84870 | -76.99318 | 33859 ft | 448 kts | 205° |
| 2026-04-25 16:50 | 36.78998 | -77.02154 | 33860 ft | 447 kts | 205° |
| 2026-04-25 16:51 | 36.73167 | -77.04964 | 33858 ft | 447 kts | 205° |
| 2026-04-25 16:51 | 36.68280 | -77.07316 | 33859 ft | 447 kts | 205° |
| 2026-04-25 16:52 | 36.61422 | -77.10596 | 33860 ft | 448 kts | 205° |
| 2026-04-25 16:52 | 36.55550 | -77.13412 | 33857 ft | 448 kts | 205° |
| 2026-04-25 16:53 | 36.46747 | -77.17635 | 33859 ft | 447 kts | 205° |
| 2026-04-25 16:54 | 36.40915 | -77.20428 | 33867 ft | 448 kts | 205° |
| 2026-04-25 16:54 | 36.35033 | -77.23268 | 33867 ft | 447 kts | 206° |
| 2026-04-25 16:55 | 36.29535 | -77.26863 | 33873 ft | 442 kts | 217° |
| 2026-04-25 16:55 | 36.24524 | -77.31390 | 33869 ft | 440 kts | 221° |
| 2026-04-25 16:56 | 36.19714 | -77.36107 | 33865 ft | 440 kts | 222° |
| 2026-04-25 16:56 | 36.14871 | -77.40910 | 33863 ft | 439 kts | 222° |
| 2026-04-25 16:57 | 36.10072 | -77.45638 | 33867 ft | 440 kts | 221° |
| 2026-04-25 16:57 | 36.05230 | -77.50360 | 33870 ft | 440 kts | 221° |
| 2026-04-25 16:58 | 36.00355 | -77.55083 | 33868 ft | 440 kts | 221° |
| 2026-04-25 16:58 | 35.95517 | -77.59762 | 33873 ft | 440 kts | 221° |
| 2026-04-25 16:59 | 35.90648 | -77.64452 | 33878 ft | 442 kts | 221° |
| 2026-04-25 16:59 | 35.85813 | -77.69099 | 33879 ft | 442 kts | 221° |
| 2026-04-25 17:00 | 35.80925 | -77.73801 | 33875 ft | 444 kts | 220° |
| 2026-04-25 17:00 | 35.76022 | -77.78515 | 33880 ft | 443 kts | 220° |
| 2026-04-25 17:01 | 35.71112 | -77.83214 | 33882 ft | 445 kts | 220° |
| 2026-04-25 17:01 | 35.66167 | -77.87929 | 33883 ft | 446 kts | 220° |
| 2026-04-25 17:02 | 35.61223 | -77.92648 | 33885 ft | 446 kts | 220° |
| 2026-04-25 17:02 | 35.56266 | -77.97376 | 33891 ft | 448 kts | 220° |
| 2026-04-25 17:03 | 35.51300 | -78.02103 | 33897 ft | 448 kts | 220° |
| 2026-04-25 17:03 | 35.46344 | -78.06812 | 33900 ft | 448 kts | 220° |
| 2026-04-25 17:04 | 35.41385 | -78.11530 | 33892 ft | 447 kts | 220° |
| 2026-04-25 17:04 | 35.36412 | -78.16238 | 33898 ft | 448 kts | 219° |
| 2026-04-25 17:05 | 35.31452 | -78.20925 | 33899 ft | 448 kts | 219° |
| 2026-04-25 17:05 | 35.24004 | -78.27948 | 33896 ft | 449 kts | 219° |
| 2026-04-25 17:06 | 35.19002 | -78.32652 | 33906 ft | 449 kts | 219° |
| 2026-04-25 17:06 | 35.14030 | -78.37327 | 33909 ft | 449 kts | 219° |
| 2026-04-25 17:07 | 35.09029 | -78.42032 | 33910 ft | 449 kts | 219° |
| 2026-04-25 17:07 | 35.04034 | -78.46707 | 33916 ft | 449 kts | 219° |
| 2026-04-25 17:08 | 34.99052 | -78.51367 | 33920 ft | 449 kts | 219° |
| 2026-04-25 17:08 | 34.94052 | -78.56043 | 33905 ft | 448 kts | 219° |
| 2026-04-25 17:09 | 34.89070 | -78.60694 | 33915 ft | 449 kts | 219° |
| 2026-04-25 17:09 | 34.84042 | -78.65377 | 33910 ft | 450 kts | 218° |
| 2026-04-25 17:10 | 34.79044 | -78.70029 | 33910 ft | 450 kts | 218° |
| 2026-04-25 17:10 | 34.74016 | -78.74692 | 33910 ft | 451 kts | 218° |
| 2026-04-25 17:11 | 34.68990 | -78.79346 | 33917 ft | 450 kts | 218° |
| 2026-04-25 17:11 | 34.63938 | -78.84017 | 33913 ft | 450 kts | 218° |
| 2026-04-25 17:12 | 34.58952 | -78.88634 | 33903 ft | 452 kts | 218° |
| 2026-04-25 17:12 | 34.53901 | -78.93303 | 33911 ft | 450 kts | 218° |
| 2026-04-25 17:13 | 34.49694 | -78.97189 | 33910 ft | 452 kts | 219° |
| 2026-04-25 17:13 | 34.46599 | -79.00688 | 33912 ft | 449 kts | 231° |
| 2026-04-25 17:13 | 34.44844 | -79.03793 | 33909 ft | 446 kts | 243° |
| 2026-04-25 17:14 | 34.42706 | -79.10734 | 33904 ft | 445 kts | 257° |
| 2026-04-25 17:14 | 34.42184 | -79.18175 | 33907 ft | 440 kts | 278° |
| 2026-04-25 17:15 | 34.42349 | -79.25611 | 33906 ft | 444 kts | 256° |
| 2026-04-25 17:15 | 34.41013 | -79.28999 | 33908 ft | 448 kts | 236° |
| 2026-04-25 17:15 | 34.38755 | -79.31621 | 33905 ft | 452 kts | 216° |
| 2026-04-25 17:16 | 34.35903 | -79.33298 | 33914 ft | 455 kts | 200° |
| 2026-04-25 17:16 | 34.32874 | -79.34488 | 33906 ft | 455 kts | 200° |
| 2026-04-25 17:16 | 34.26840 | -79.37138 | 33913 ft | 455 kts | 202° |
| 2026-04-25 17:17 | 34.20911 | -79.39974 | 33911 ft | 455 kts | 203° |
| 2026-04-25 17:17 | 34.14995 | -79.42844 | 33911 ft | 454 kts | 204° |
| 2026-04-25 17:18 | 34.09088 | -79.45701 | 33910 ft | 455 kts | 203° |
| 2026-04-25 17:18 | 34.03172 | -79.48550 | 33912 ft | 455 kts | 203° |
| 2026-04-25 17:19 | 33.97252 | -79.51389 | 33906 ft | 455 kts | 203° |
| 2026-04-25 17:19 | 33.91286 | -79.54243 | 33904 ft | 455 kts | 203° |
| 2026-04-25 17:20 | 33.85381 | -79.57212 | 33908 ft | 455 kts | 207° |
| 2026-04-25 17:20 | 33.79792 | -79.60826 | 33910 ft | 454 kts | 212° |
| 2026-04-25 17:21 | 33.74252 | -79.64705 | 33913 ft | 454 kts | 212° |
| 2026-04-25 17:21 | 33.68753 | -79.68547 | 33915 ft | 454 kts | 211° |
| 2026-04-25 17:22 | 33.64129 | -79.71738 | 33921 ft | 455 kts | 211° |
| 2026-04-25 17:22 | 33.57676 | -79.76148 | 33919 ft | 456 kts | 211° |
| 2026-04-25 17:23 | 33.52116 | -79.79920 | 33919 ft | 455 kts | 211° |
| 2026-04-25 17:23 | 33.46565 | -79.83675 | 33919 ft | 456 kts | 211° |
| 2026-04-25 17:24 | 33.43789 | -79.85548 | 33715 ft | 450 kts | 211° |
| 2026-04-25 17:24 | 33.41046 | -79.87397 | 32754 ft | 456 kts | 211° |
| 2026-04-25 17:24 | 33.38204 | -79.89314 | 31516 ft | 467 kts | 211° |
| 2026-04-25 17:24 | 33.35373 | -79.91222 | 30451 ft | 473 kts | 211° |
| 2026-04-25 17:25 | 33.32451 | -79.93189 | 29391 ft | 478 kts | 211° |
| 2026-04-25 17:25 | 33.29552 | -79.95139 | 28428 ft | 480 kts | 211° |
| 2026-04-25 17:25 | 33.26609 | -79.97115 | 27588 ft | 479 kts | 211° |
| 2026-04-25 17:25 | 33.23671 | -79.99087 | 26684 ft | 478 kts | 211° |
| 2026-04-25 17:26 | 33.20766 | -80.01035 | 25734 ft | 479 kts | 211° |
| 2026-04-25 17:26 | 33.17824 | -80.03006 | 24816 ft | 477 kts | 211° |
| 2026-04-25 17:26 | 33.14952 | -80.04929 | 24214 ft | 468 kts | 211° |
| 2026-04-25 17:26 | 33.12118 | -80.06821 | 23955 ft | 452 kts | 211° |
| 2026-04-25 17:27 | 33.09420 | -80.08621 | 23927 ft | 431 kts | 211° |
| 2026-04-25 17:27 | 33.06833 | -80.10345 | 23927 ft | 413 kts | 211° |
| 2026-04-25 17:27 | 33.04323 | -80.12019 | 23932 ft | 412 kts | 211° |
| 2026-04-25 17:27 | 33.02639 | -80.13145 | 23934 ft | 413 kts | 211° |
| 2026-04-25 17:28 | 32.99320 | -80.15364 | 23477 ft | 406 kts | 211° |
| 2026-04-25 17:28 | 32.96855 | -80.17010 | 22847 ft | 405 kts | 211° |
| 2026-04-25 17:28 | 32.94361 | -80.18673 | 22261 ft | 402 kts | 211° |
| 2026-04-25 17:28 | 32.91903 | -80.20310 | 21677 ft | 399 kts | 211° |
| 2026-04-25 17:29 | 32.89467 | -80.21932 | 21092 ft | 396 kts | 211° |
| 2026-04-25 17:29 | 32.87080 | -80.23519 | 20527 ft | 393 kts | 212° |
| 2026-04-25 17:29 | 32.84682 | -80.25112 | 19982 ft | 389 kts | 212° |
| 2026-04-25 17:29 | 32.82294 | -80.26698 | 19368 ft | 387 kts | 212° |
| 2026-04-25 17:30 | 32.79945 | -80.28257 | 18822 ft | 383 kts | 212° |
| 2026-04-25 17:30 | 32.77619 | -80.29800 | 18244 ft | 380 kts | 212° |
| 2026-04-25 17:30 | 32.75270 | -80.31359 | 17675 ft | 377 kts | 212° |
| 2026-04-25 17:30 | 32.72982 | -80.32878 | 17164 ft | 373 kts | 212° |
| 2026-04-25 17:31 | 32.70697 | -80.34392 | 16616 ft | 371 kts | 212° |
| 2026-04-25 17:31 | 32.68442 | -80.35884 | 16100 ft | 368 kts | 212° |
| 2026-04-25 17:31 | 32.66192 | -80.37373 | 15582 ft | 364 kts | 212° |
| 2026-04-25 17:31 | 32.63977 | -80.38837 | 15055 ft | 362 kts | 212° |
| 2026-04-25 17:32 | 32.61775 | -80.40292 | 14530 ft | 359 kts | 212° |
| 2026-04-25 17:32 | 32.59572 | -80.41746 | 14029 ft | 355 kts | 212° |
| 2026-04-25 17:32 | 32.57398 | -80.43180 | 13507 ft | 353 kts | 212° |
| 2026-04-25 17:32 | 32.55243 | -80.44601 | 13035 ft | 349 kts | 211° |
| 2026-04-25 17:33 | 32.53118 | -80.46002 | 12560 ft | 346 kts | 211° |
| 2026-04-25 17:33 | 32.51023 | -80.47382 | 12113 ft | 341 kts | 211° |
| 2026-04-25 17:33 | 32.48919 | -80.48766 | 11649 ft | 338 kts | 211° |
| 2026-04-25 17:33 | 32.46881 | -80.50108 | 11195 ft | 334 kts | 211° |
| 2026-04-25 17:34 | 32.44826 | -80.51459 | 10737 ft | 330 kts | 210° |
| 2026-04-25 17:34 | 32.42849 | -80.52760 | 10561 ft | 317 kts | 211° |
| 2026-04-25 17:34 | 32.40919 | -80.54027 | 10469 ft | 303 kts | 211° |
| 2026-04-25 17:34 | 32.39132 | -80.55208 | 10323 ft | 292 kts | 212° |
| 2026-04-25 17:35 | 32.37497 | -80.56638 | 10043 ft | 286 kts | 227° |
| 2026-04-25 17:35 | 32.36403 | -80.58610 | 10016 ft | 286 kts | 246° |
| 2026-04-25 17:35 | 32.35638 | -80.60818 | 10012 ft | 287 kts | 250° |
| 2026-04-25 17:35 | 32.34913 | -80.63021 | 10011 ft | 287 kts | 250° |
| 2026-04-25 17:36 | 32.34163 | -80.65228 | 10010 ft | 281 kts | 248° |
| 2026-04-25 17:36 | 32.33435 | -80.67315 | 9990 ft | 267 kts | 248° |
| 2026-04-25 17:36 | 32.32716 | -80.69347 | 9768 ft | 262 kts | 248° |
| 2026-04-25 17:36 | 32.32011 | -80.71330 | 9414 ft | 263 kts | 248° |
| 2026-04-25 17:37 | 32.31302 | -80.73324 | 9124 ft | 260 kts | 248° |
| 2026-04-25 17:37 | 32.30590 | -80.75324 | 8786 ft | 260 kts | 248° |
| 2026-04-25 17:37 | 32.29885 | -80.77308 | 8484 ft | 259 kts | 248° |
| 2026-04-25 17:37 | 32.29187 | -80.79268 | 8159 ft | 258 kts | 248° |
| 2026-04-25 17:38 | 32.28484 | -80.81244 | 7865 ft | 256 kts | 248° |
| 2026-04-25 17:38 | 32.28021 | -80.82540 | 7644 ft | 256 kts | 248° |
| 2026-04-25 17:38 | 32.27094 | -80.85140 | 7242 ft | 254 kts | 248° |
| 2026-04-25 17:38 | 32.26409 | -80.87056 | 6947 ft | 253 kts | 248° |
| 2026-04-25 17:39 | 32.25719 | -80.88989 | 6638 ft | 252 kts | 248° |
| 2026-04-25 17:39 | 32.25037 | -80.90897 | 6298 ft | 251 kts | 248° |
| 2026-04-25 17:39 | 32.24351 | -80.92817 | 5975 ft | 250 kts | 248° |
| 2026-04-25 17:39 | 32.23672 | -80.94714 | 5681 ft | 248 kts | 248° |
| 2026-04-25 17:40 | 32.22998 | -80.96596 | 5335 ft | 248 kts | 248° |
| 2026-04-25 17:40 | 32.22324 | -80.98480 | 5030 ft | 245 kts | 248° |
| 2026-04-25 17:40 | 32.21659 | -81.00335 | 4736 ft | 243 kts | 248° |
| 2026-04-25 17:40 | 32.21003 | -81.02162 | 4588 ft | 234 kts | 248° |
| 2026-04-25 17:41 | 32.20369 | -81.03931 | 4342 ft | 231 kts | 248° |
| 2026-04-25 17:41 | 32.19732 | -81.05707 | 4068 ft | 230 kts | 248° |
| 2026-04-25 17:41 | 32.19111 | -81.07435 | 4016 ft | 228 kts | 248° |
| 2026-04-25 17:41 | 32.18475 | -81.09206 | 4007 ft | 230 kts | 248° |
| 2026-04-25 17:42 | 32.17849 | -81.10947 | 4005 ft | 229 kts | 248° |
| 2026-04-25 17:42 | 32.17213 | -81.12714 | 4004 ft | 230 kts | 248° |
| 2026-04-25 17:42 | 32.16587 | -81.14453 | 4005 ft | 230 kts | 248° |
| 2026-04-25 17:42 | 32.15950 | -81.16223 | 4005 ft | 231 kts | 248° |
| 2026-04-25 17:43 | 32.15321 | -81.17971 | 4004 ft | 230 kts | 248° |
| 2026-04-25 17:43 | 32.14713 | -81.19754 | 4005 ft | 229 kts | 253° |
| 2026-04-25 17:43 | 32.14417 | -81.21612 | 4006 ft | 229 kts | 265° |
| 2026-04-25 17:43 | 32.14339 | -81.23495 | 4006 ft | 230 kts | 268° |
| 2026-04-25 17:44 | 32.14274 | -81.25382 | 4005 ft | 228 kts | 267° |
| 2026-04-25 17:44 | 32.14180 | -81.27254 | 4006 ft | 231 kts | 266° |
| 2026-04-25 17:44 | 32.14070 | -81.29140 | 4005 ft | 229 kts | 266° |
| 2026-04-25 17:44 | 32.13953 | -81.31023 | 4006 ft | 230 kts | 266° |
| 2026-04-25 17:45 | 32.13836 | -81.32922 | 4008 ft | 229 kts | 266° |
| 2026-04-25 17:45 | 32.13759 | -81.34181 | 4002 ft | 228 kts | 266° |
| 2026-04-25 17:45 | 32.13565 | -81.36647 | 3964 ft | 217 kts | 263° |
| 2026-04-25 17:45 | 32.13439 | -81.38442 | 3674 ft | 217 kts | 267° |
| 2026-04-25 17:46 | 32.13375 | -81.40224 | 3420 ft | 216 kts | 268° |
| 2026-04-25 17:46 | 32.13319 | -81.42011 | 3163 ft | 215 kts | 268° |
| 2026-04-25 17:46 | 32.13266 | -81.43760 | 3019 ft | 213 kts | 268° |
| 2026-04-25 17:46 | 32.13209 | -81.45536 | 3006 ft | 214 kts | 267° |
| 2026-04-25 17:47 | 32.13123 | -81.47289 | 3003 ft | 214 kts | 267° |
| 2026-04-25 17:47 | 32.13063 | -81.49070 | 3002 ft | 214 kts | 268° |
| 2026-04-25 17:47 | 32.13040 | -81.50853 | 3002 ft | 214 kts | 269° |
| 2026-04-25 17:47 | 32.13033 | -81.52620 | 3001 ft | 214 kts | 270° |
| 2026-04-25 17:48 | 32.13911 | -81.55901 | 3001 ft | 219 kts | 316° |
| 2026-04-25 17:48 | 32.15276 | -81.56746 | 3003 ft | 222 kts | 343° |
| 2026-04-25 17:48 | 32.16841 | -81.56911 | 3002 ft | 225 kts | 6° |
| 2026-04-25 17:49 | 32.18266 | -81.56169 | 3002 ft | 228 kts | 40° |
| 2026-04-25 17:49 | 32.19170 | -81.54627 | 3002 ft | 229 kts | 68° |
| 2026-04-25 17:49 | 32.19468 | -81.52755 | 3001 ft | 230 kts | 94° |
| 2026-04-25 17:49 | 32.18940 | -81.50999 | 3002 ft | 228 kts | 128° |
| 2026-04-25 17:50 | 32.17744 | -81.49807 | 3001 ft | 224 kts | 155° |
| 2026-04-25 17:50 | 32.16264 | -81.49209 | 3002 ft | 222 kts | 168° |
| 2026-04-25 17:50 | 32.14802 | -81.48758 | 3001 ft | 207 kts | 163° |
| 2026-04-25 17:50 | 32.13629 | -81.47829 | 3001 ft | 201 kts | 131° |
| 2026-04-25 17:51 | 32.12844 | -81.46441 | 3004 ft | 202 kts | 123° |
| 2026-04-25 17:51 | 32.12117 | -81.44997 | 3003 ft | 201 kts | 122° |
| 2026-04-25 17:51 | 32.11406 | -81.43571 | 3003 ft | 201 kts | 122° |
| 2026-04-25 17:51 | 32.10694 | -81.42142 | 3001 ft | 200 kts | 122° |
| 2026-04-25 17:52 | 32.10102 | -81.40649 | 2998 ft | 197 kts | 100° |
| 2026-04-25 17:52 | 32.10141 | -81.39594 | 2955 ft | 192 kts | 76° |
| 2026-04-25 17:52 | 32.10895 | -81.37723 | 2613 ft | 188 kts | 45° |
| 2026-04-25 17:52 | 32.11836 | -81.36608 | 2600 ft | 194 kts | 49° |
| 2026-04-25 17:53 | 32.12553 | -81.35242 | 2604 ft | 196 kts | 66° |
| 2026-04-25 17:53 | 32.12957 | -81.33686 | 2607 ft | 196 kts | 78° |
| 2026-04-25 17:53 | 32.13071 | -81.32106 | 2623 ft | 183 kts | 94° |
| 2026-04-25 17:53 | 32.12993 | -81.30666 | 2602 ft | 165 kts | 92° |
| 2026-04-25 17:54 | 32.12971 | -81.29349 | 2586 ft | 155 kts | 91° |
| 2026-04-25 17:54 | 32.12949 | -81.28041 | 2252 ft | 162 kts | 91° |
| 2026-04-25 17:54 | 32.12932 | -81.26674 | 1900 ft | 169 kts | 91° |
| 2026-04-25 17:54 | 32.12916 | -81.25264 | 1562 ft | 170 kts | 91° |
| 2026-04-25 17:55 | 32.12901 | -81.23891 | 1322 ft | 168 kts | 91° |
| 2026-04-25 17:55 | 32.12885 | -81.22479 | 890 ft | 176 kts | 91° |
| 2026-04-25 17:55 | 32.12870 | -81.20985 | 450 ft | 182 kts | 91° |
| 2026-04-25 17:55 | 32.12855 | -81.19672 | 48 ft | 0 kts | 91° |
| 2026-04-25 17:57 | 32.12856 | -81.19669 | 336 ft | 7 kts | 91° |
| 2026-04-25 17:57 | 32.12853 | -81.19430 | 1482 ft | 68 kts | 91° |